Time;durP1;ratioP1;P1;durP2;ratioP2;P2;SDS_P1;SDS_P2;PMS_P1;PMS_P2;Temp;Humidity;BMP_temperature;BMP_pressure;BME280_temperature;BME280_humidity;BME280_pressure;Samples;Min_cycle;Max_cycle;Signal;HPM_P1;HPM_P2
2021/04/15 00:00:47;;;;;;;6.20;2.38;;;;;;;6.55;50.31;103024.22;4904013;28;124194;-73
2021/04/15 00:03:19;;;;;;;7.75;2.60;;;;;;;6.57;50.29;103027.75;4913589;28;123329;-73
2021/04/15 00:05:48;;;;;;;5.55;2.78;;;;;;;6.59;50.47;103019.00;4899999;28;112638;-73
2021/04/15 00:08:17;;;;;;;5.38;2.50;;;;;;;6.61;50.42;103025.16;4905531;28;114333;-73
2021/04/15 00:10:50;;;;;;;8.00;2.78;;;;;;;6.62;50.36;103023.41;4903199;28;124171;-74
2021/04/15 00:13:23;;;;;;;5.07;2.65;;;;;;;6.63;50.69;103023.41;4914315;28;122951;-73
2021/04/15 00:15:51;;;;;;;5.63;2.65;;;;;;;6.63;50.69;103027.81;4905591;28;114637;-73
2021/04/15 00:18:19;;;;;;;6.35;2.42;;;;;;;6.61;50.51;103021.63;4905290;28;112910;-73
2021/04/15 00:20:45;;;;;;;6.32;2.72;;;;;;;6.62;50.75;103023.41;4898547;28;124095;-73
2021/04/15 00:23:13;;;;;;;7.13;2.78;;;;;;;6.64;50.56;103019.03;4907481;28;123995;-73
2021/04/15 00:25:40;;;;;;;7.57;2.60;;;;;;;6.66;50.84;103021.66;4910158;28;114463;-72
2021/04/15 00:28:07;;;;;;;6.75;3.08;;;;;;;6.68;50.87;103019.94;4900818;28;114552;-72
2021/04/15 00:30:35;;;;;;;7.15;2.65;;;;;;;6.68;50.86;103015.53;4904190;28;124084;-73
2021/04/15 00:33:07;;;;;;;5.38;2.80;;;;;;;6.67;50.97;103019.06;4908403;28;124011;-73
2021/04/15 00:35:36;;;;;;;5.85;2.83;;;;;;;6.65;50.73;103015.53;4902911;28;114316;-73
2021/04/15 00:38:04;;;;;;;7.70;2.80;;;;;;;6.65;50.98;103010.28;4907171;28;113890;-73
2021/04/15 00:40:33;;;;;;;7.95;2.58;;;;;;;6.66;51.00;103005.88;4906874;28;122984;-73
2021/04/15 00:43:00;;;;;;;4.78;2.33;;;;;;;6.66;50.89;103009.38;4902030;28;123965;-73
2021/04/15 00:45:39;;;;;;;5.45;2.65;;;;;;;6.69;51.32;103006.78;4902542;28;115963;-73
2021/04/15 00:48:24;;;;;;;6.00;2.40;;;;;;;6.70;51.39;103003.25;4908579;28;114838;-72
2021/04/15 00:50:59;;;;;;;3.97;2.17;;;;;;;6.69;51.21;103004.16;4907918;28;123864;-73
2021/04/15 00:53:32;;;;;;;4.85;2.50;;;;;;;6.67;51.20;103008.53;4910248;28;124175;-72
2021/04/15 00:55:59;;;;;;;7.93;2.33;;;;;;;6.66;51.54;103001.47;4906938;28;114651;-73
2021/04/15 00:58:31;;;;;;;8.23;2.70;;;;;;;6.66;51.76;103001.47;4902888;28;113825;-73
2021/04/15 01:00:59;;;;;;;6.07;2.47;;;;;;;6.66;51.79;102996.22;4912361;28;124286;-72
2021/04/15 01:03:27;;;;;;;5.75;2.75;;;;;;;6.68;51.81;102997.09;4910405;28;123798;-73
2021/04/15 01:05:55;;;;;;;7.53;2.65;;;;;;;6.71;51.62;102999.75;4905813;28;114362;-73
2021/04/15 01:08:22;;;;;;;3.58;2.45;;;;;;;6.73;52.10;103002.41;4907280;28;114523;-72
2021/04/15 01:11:10;;;;;;;6.85;2.50;;;;;;;6.72;51.68;103001.50;4905603;28;123802;-72
2021/04/15 01:13:46;;;;;;;6.80;2.65;;;;;;;6.72;51.76;102998.00;4901350;28;123958;-72
2021/04/15 01:16:43;;;;;;;6.13;2.40;;;;;;;6.69;51.75;102996.25;4911809;28;115295;-72
2021/04/15 01:19:36;;;;;;;;;;;;;;;6.70;51.40;102991.84;4915566;28;112956;-72
2021/04/15 01:22:40;;;;;;;11.95;2.53;;;;;;;6.69;51.46;102996.25;4899577;28;125526;-72
2021/04/15 01:25:23;;;;;;;10.98;3.03;;;;;;;6.69;51.51;102985.72;4904206;28;123902;-71
2021/04/15 01:27:55;;;;;;;6.90;2.50;;;;;;;6.72;51.94;102990.97;4904636;28;114177;-72
2021/04/15 01:30:32;;;;;;;5.85;2.50;;;;;;;6.74;51.76;102977.81;4901870;28;114655;-72
2021/04/15 01:32:58;;;;;;;7.82;2.35;;;;;;;6.77;51.93;102978.72;4904637;28;123850;-72
2021/04/15 01:35:51;;;;;;;5.25;2.63;;;;;;;6.80;51.85;102984.03;4905716;28;123853;-72
2021/04/15 01:38:24;;;;;;;5.97;2.70;;;;;;;6.83;52.23;102984.00;4902624;28;114965;-71
2021/04/15 01:41:13;;;;;;;7.10;2.60;;;;;;;6.83;51.77;102984.00;4900282;28;114951;-71
2021/04/15 01:43:50;;;;;;;6.20;2.72;;;;;;;6.87;52.42;102984.91;4915208;28;123941;-72
2021/04/15 01:46:23;;;;;;;6.05;2.60;;;;;;;6.88;52.33;102981.41;4901010;28;122931;-71
2021/04/15 01:48:52;;;;;;;8.70;3.10;;;;;;;6.93;52.17;102990.22;4900592;28;114703;-72
2021/04/15 01:51:27;;;;;;;10.38;2.60;;;;;;;6.95;52.07;102982.31;4917979;28;113197;-71
2021/04/15 01:54:06;;;;;;;12.95;3.03;;;;;;;6.96;52.21;102984.97;4897690;28;124178;-71
2021/04/15 01:56:42;;;;;;;6.30;2.55;;;;;;;6.98;52.19;102987.59;4901836;28;124543;-74
2021/04/15 01:59:15;;;;;;;5.75;2.50;;;;;;;6.98;52.25;102988.47;4899340;28;114349;-72
2021/04/15 02:01:45;;;;;;;6.20;2.70;;;;;;;7.01;52.44;102998.16;4894659;28;114002;-73
2021/04/15 02:04:18;;;;;;;8.20;2.60;;;;;;;7.02;52.42;102989.38;4894888;28;124153;-74
2021/04/15 02:07:10;;;;;;;5.22;2.65;;;;;;;7.03;52.50;102980.63;4903511;28;124683;-73
2021/04/15 02:09:39;;;;;;;8.20;2.40;;;;;;;7.05;52.28;102978.88;4899248;28;114595;-73
2021/04/15 02:12:12;;;;;;;4.30;2.50;;;;;;;7.08;52.52;102984.13;4898269;28;114283;-73
2021/04/15 02:14:43;;;;;;;8.85;2.72;;;;;;;7.10;52.64;102982.41;4905328;28;124830;-73
2021/04/15 02:17:13;;;;;;;8.52;3.05;;;;;;;7.12;52.53;102974.47;4910468;28;124559;-73
2021/04/15 02:19:47;;;;;;;7.15;2.42;;;;;;;7.14;52.56;102984.16;4914555;28;114110;-73
2021/04/15 02:22:32;;;;;;;5.68;2.30;;;;;;;7.17;52.61;102981.53;4904722;28;114147;-73
2021/04/15 02:25:05;;;;;;;7.90;2.60;;;;;;;7.19;52.52;102998.22;4912648;28;122876;-72
2021/04/15 02:27:52;;;;;;;4.93;2.40;;;;;;;7.22;52.45;102992.97;4930108;23;124056;-65
2021/04/15 02:30:36;;;;;;;6.50;2.47;;;;;;;7.27;52.55;102997.38;4905506;28;115165;-67
2021/04/15 02:33:22;;;;;;;6.72;2.58;;;;;;;7.30;52.94;102994.75;4928056;28;115137;-66
2021/04/15 02:35:52;;;;;;;4.13;2.50;;;;;;;7.35;52.92;102987.75;4911370;28;123411;-66
2021/04/15 02:38:28;;;;;;;5.57;2.63;;;;;;;7.36;52.85;102984.22;4925814;28;124238;-67
2021/04/15 02:41:01;;;;;;;5.80;2.78;;;;;;;7.38;52.74;102982.47;4917790;28;116356;-66
2021/04/15 02:43:48;;;;;;;6.45;2.60;;;;;;;7.42;53.07;102984.25;4920833;28;114219;-67
2021/04/15 02:46:34;;;;;;;6.47;2.88;;;;;;;7.45;52.93;102983.38;4898007;28;123351;-67
2021/04/15 02:49:05;;;;;;;6.60;2.60;;;;;;;7.44;52.74;102977.25;4929704;28;123407;-67
2021/04/15 02:51:37;;;;;;;6.53;2.42;;;;;;;7.44;52.97;102977.25;4912487;28;114112;-68
2021/04/15 02:54:09;;;;;;;6.90;2.60;;;;;;;7.47;52.89;102977.22;4924920;28;114326;-68
2021/04/15 02:56:59;;;;;;;6.55;2.72;;;;;;;7.47;53.05;102982.50;4921988;28;123758;-67
2021/04/15 02:59:35;;;;;;;6.25;2.72;;;;;;;7.48;52.92;102973.72;4922700;28;123722;-67
2021/04/15 03:02:13;;;;;;;8.40;2.97;;;;;;;7.49;52.88;102978.09;4926268;28;114306;-67
2021/04/15 03:04:46;;;;;;;7.25;2.67;;;;;;;7.51;53.33;102973.72;4928510;28;114258;-67
2021/04/15 03:07:20;;;;;;;4.82;3.38;;;;;;;7.53;53.01;102977.22;4930494;23;124089;-68
2021/04/15 03:09:48;;;;;;;5.40;2.50;;;;;;;7.52;52.87;102975.50;4845540;28;122972;-72
2021/04/15 03:12:20;;;;;;;6.63;3.03;;;;;;;7.54;53.18;102973.72;4855963;28;113657;-71
2021/04/15 03:14:57;;;;;;;5.22;3.03;;;;;;;7.53;53.03;102971.97;4843553;28;113630;-72
2021/04/15 03:17:26;;;;;;;7.53;2.95;;;;;;;7.56;53.04;102973.75;4863318;28;123507;-72
2021/04/15 03:19:59;;;;;;;5.40;2.67;;;;;;;7.55;53.06;102986.06;4864351;28;123549;-72
2021/04/15 03:22:39;;;;;;;6.93;2.90;;;;;;;7.55;53.35;102975.50;4850112;28;113551;-72
2021/04/15 03:25:06;;;;;;;9.32;3.30;;;;;;;7.54;52.99;102970.22;4850563;28;115141;-71
2021/04/15 03:27:41;;;;;;;6.68;3.15;;;;;;;7.50;53.13;102977.25;4853824;28;124479;-73
2021/04/15 03:30:13;;;;;;;6.10;2.80;;;;;;;7.48;52.98;102975.47;4853780;28;124884;-75
2021/04/15 03:33:07;;;;;;;6.88;3.05;;;;;;;7.41;52.94;102975.47;4850305;28;113154;-72
2021/04/15 03:35:46;;;;;;;5.60;2.53;;;;;;;7.39;53.13;102973.69;4849703;28;113978;-74
2021/04/15 03:38:19;;;;;;;7.25;3.30;;;;;;;7.36;53.43;102978.97;4843602;28;123854;-72
2021/04/15 03:40:51;;;;;;;10.57;3.42;;;;;;;7.34;53.07;102978.06;4847792;28;124579;-71
2021/04/15 03:43:26;;;;;;;7.80;3.20;;;;;;;7.32;53.53;102982.47;4849831;28;112665;-72
2021/04/15 03:46:05;;;;;;;5.85;3.38;;;;;;;7.32;53.42;102987.72;4851097;28;114052;-73
2021/04/15 03:48:37;;;;;;;6.35;3.55;;;;;;;7.32;53.43;102988.59;4849015;28;124045;-74
2021/04/15 03:51:10;;;;;;;7.03;3.05;;;;;;;7.32;53.44;102982.47;4850631;28;123062;-71
2021/04/15 03:53:44;;;;;;;6.68;3.35;;;;;;;7.33;53.65;102984.25;4847846;28;114634;-72
2021/04/15 03:56:38;;;;;;;7.72;3.25;;;;;;;7.32;53.19;102978.06;4851915;28;114049;-73
2021/04/15 03:59:37;;;;;;;6.85;3.30;;;;;;;7.31;53.08;102975.41;4853519;28;123703;-75
2021/04/15 04:02:13;;;;;;;5.22;3.00;;;;;;;7.27;53.17;102979.84;4850923;28;124426;-72
2021/04/15 04:04:52;;;;;;;;;;;;;;;7.22;52.93;102977.16;4854680;28;113954;-70
2021/04/15 04:07:27;;;;;;;4.35;2.70;;;;;;;7.18;52.99;102975.41;4851353;28;114144;-71
2021/04/15 04:09:59;;;;;;;5.70;2.70;;;;;;;7.14;52.66;102978.91;4851636;28;124688;-73
2021/04/15 04:12:47;;;;;;;4.82;2.90;;;;;;;7.07;53.13;102971.84;4868255;28;123271;-72
2021/04/15 04:15:18;;;;;;;6.00;2.67;;;;;;;7.04;53.20;102987.63;4867168;28;114746;-72
2021/04/15 04:18:06;;;;;;;4.78;3.10;;;;;;;7.00;53.26;102986.72;4865808;28;114231;-71
2021/04/15 04:20:39;;;;;;;4.72;2.88;;;;;;;6.96;53.12;102989.34;4866601;28;124309;-70
2021/04/15 04:23:11;;;;;;;6.22;3.08;;;;;;;6.93;52.98;102989.31;4847716;28;124203;-71
2021/04/15 04:25:52;;;;;;;4.95;3.03;;;;;;;6.90;52.99;102994.59;4848223;28;115022;-71
2021/04/15 04:28:35;;;;;;;8.10;3.20;;;;;;;6.86;53.19;102998.09;4851376;28;113969;-71
2021/04/15 04:31:11;;;;;;;6.20;3.42;;;;;;;6.82;53.23;102998.06;4851052;28;124481;-70
2021/04/15 04:33:42;;;;;;;6.03;3.13;;;;;;;6.78;53.32;103001.56;4847357;28;123877;-70
2021/04/15 04:36:12;;;;;;;5.38;2.95;;;;;;;6.76;53.17;103002.41;4848786;29;114098;-70
2021/04/15 04:38:40;;;;;;;7.47;3.25;;;;;;;6.72;53.51;103001.50;4864182;28;113849;-70
2021/04/15 04:41:11;;;;;;;6.43;3.22;;;;;;;6.69;53.35;103004.16;4854213;28;123905;-70
2021/04/15 04:43:49;;;;;;;5.90;3.25;;;;;;;6.66;53.20;103004.13;4848841;28;124747;-70
2021/04/15 04:46:40;;;;;;;4.57;3.03;;;;;;;6.62;53.39;103015.50;4853012;28;114935;-71
2021/04/15 04:49:19;;;;;;;10.35;3.30;;;;;;;6.58;53.34;103008.47;4853237;28;114135;-71
2021/04/15 04:51:50;;;;;;;8.20;3.53;;;;;;;6.54;53.35;103004.94;4852283;28;122848;-73
2021/04/15 04:54:19;;;;;;;6.80;3.38;;;;;;;6.53;53.46;103015.44;4852544;29;124244;-70
2021/04/15 04:56:59;;;;;;;5.43;3.08;;;;;;;6.49;53.41;103004.00;4855362;28;114158;-70
2021/04/15 04:59:34;;;;;;;5.90;3.20;;;;;;;6.46;53.70;103011.91;4850569;28;114347;-71
2021/04/15 05:02:01;;;;;;;7.00;3.53;;;;;;;6.44;53.33;103005.72;4852576;28;123465;-71
2021/04/15 05:04:35;;;;;;;6.47;3.22;;;;;;;6.42;53.68;103013.63;4853259;28;124354;-70
2021/04/15 05:07:07;;;;;;;8.45;3.78;;;;;;;6.41;53.86;103011.84;4853141;28;113391;-70
2021/04/15 05:09:40;;;;;;;8.20;3.80;;;;;;;6.41;53.71;103011.84;4854709;28;113346;-70
2021/04/15 05:12:19;;;;;;;8.52;3.95;;;;;;;6.39;53.44;103008.31;4872438;28;123679;-71
2021/04/15 05:14:46;;;;;;;6.93;3.92;;;;;;;6.40;53.63;103010.09;4849329;28;123791;-70
2021/04/15 05:17:34;;;;;;;5.60;3.63;;;;;;;6.39;53.87;103013.59;4846973;28;113122;-71
2021/04/15 05:20:09;;;;;;;6.20;3.50;;;;;;;6.39;53.81;103018.84;4856118;28;112780;-70
2021/04/15 05:22:45;;;;;;;9.00;3.90;;;;;;;6.40;54.05;103025.91;4854451;28;123535;-73
2021/04/15 05:25:23;;;;;;;10.32;3.97;;;;;;;6.42;54.26;103024.16;4853207;28;124344;-71
2021/04/15 05:27:51;;;;;;;6.82;3.90;;;;;;;6.46;54.16;103025.06;4855118;28;113972;-71
2021/04/15 05:30:33;;;;;;;6.05;3.92;;;;;;;6.48;53.83;103027.69;4854948;28;113755;-71
2021/04/15 05:33:02;;;;;;;6.57;4.00;;;;;;;6.49;54.40;103026.81;4837231;29;122388;-72
2021/04/15 05:35:41;;;;;;;5.85;4.10;;;;;;;6.52;54.20;103029.50;4846896;28;123776;-71
2021/04/15 05:38:10;;;;;;;11.57;4.45;;;;;;;6.52;54.37;103029.50;4866907;28;114552;-71
2021/04/15 05:40:37;;;;;;;7.20;4.30;;;;;;;6.54;54.55;103028.63;4853004;28;114092;-71
2021/04/15 05:43:04;;;;;;;7.30;4.53;;;;;;;6.57;54.67;103027.75;4847384;28;125381;-71
2021/04/15 05:45:33;;;;;;;7.38;4.65;;;;;;;6.60;54.81;103022.50;4853023;28;123674;-71
2021/04/15 05:48:03;;;;;;;7.38;4.55;;;;;;;6.64;54.77;103034.81;4864289;28;114181;-70
2021/04/15 05:50:36;;;;;;;8.55;4.60;;;;;;;6.66;54.81;103025.19;4868686;28;114078;-70
2021/04/15 05:53:06;;;;;;;8.45;4.65;;;;;;;6.70;54.68;103026.94;4846834;28;124007;-71
2021/04/15 05:55:41;;;;;;;8.55;5.20;;;;;;;6.73;55.33;103024.34;4849257;28;124773;-71
2021/04/15 05:58:17;;;;;;;9.13;4.90;;;;;;;6.79;55.03;103027.00;4834931;29;114453;-71
2021/04/15 06:00:55;;;;;;;7.85;4.60;;;;;;;6.85;54.95;103028.81;4837148;29;114012;-72
2021/04/15 06:03:57;;;;;;;7.25;4.07;;;;;;;6.90;54.95;103026.22;4848131;28;124045;-71
2021/04/15 06:06:33;;;;;;;7.35;4.28;;;;;;;6.93;55.20;103032.38;4847167;28;123290;-71
2021/04/15 06:09:01;;;;;;;8.32;4.05;;;;;;;6.97;55.28;103034.16;4845602;28;114104;-70
2021/04/15 06:11:42;;;;;;;9.65;4.78;;;;;;;7.03;55.44;103033.31;4855702;28;113910;-71
2021/04/15 06:14:36;;;;;;;10.02;4.95;;;;;;;7.09;55.55;103030.69;4849604;28;124550;-71
2021/04/15 06:17:30;;;;;;;6.72;4.82;;;;;;;7.15;55.45;103041.25;4850111;28;122973;-70
2021/04/15 06:20:14;;;;;;;10.00;4.57;;;;;;;7.22;55.95;103035.13;4848838;28;112384;-72
2021/04/15 06:22:45;;;;;;;7.72;5.07;;;;;;;7.29;55.68;103030.78;4847290;29;113933;-73
2021/04/15 06:25:20;;;;;;;7.78;4.75;;;;;;;7.36;55.85;103037.81;4850400;28;125162;-71
2021/04/15 06:27:49;;;;;;;8.57;4.95;;;;;;;7.45;56.29;103031.72;4865607;28;123275;-71
2021/04/15 06:30:22;;;;;;;9.75;4.43;;;;;;;7.54;56.54;103042.28;4855861;28;114517;-73
2021/04/15 06:32:54;;;;;;;6.05;3.40;;;;;;;7.64;56.26;103034.41;4852323;28;113176;-73
2021/04/15 06:35:28;;;;;;;5.78;3.28;;;;;;;7.76;56.32;103034.41;4864717;28;122847;-71
2021/04/15 06:38:17;;;;;;;5.93;3.10;;;;;;;7.87;56.09;103043.22;4846945;28;123905;-75
2021/04/15 06:40:50;;;;;;;7.43;3.65;;;;;;;8.01;56.65;103042.41;4861595;28;113027;-72
2021/04/15 06:43:58;;;;;;;6.20;3.20;;;;;;;8.16;56.16;103038.00;4850670;28;113807;-71
2021/04/15 06:46:44;;;;;;;5.75;2.90;;;;;;;8.33;56.51;103045.94;4849918;29;124159;-72
2021/04/15 06:49:29;;;;;;;7.28;2.50;;;;;;;8.52;56.08;103045.94;4856169;28;122883;-72
2021/04/15 06:52:17;;;;;;;8.68;2.50;;;;;;;8.67;55.72;103042.41;4848659;28;115418;-71
2021/04/15 06:55:34;;;;;;;5.53;2.63;;;;;;;8.76;55.22;103045.91;4847320;28;114689;-70
2021/04/15 06:58:52;;;;;;;3.53;2.30;;;;;;;8.88;55.39;103041.50;4834846;28;124522;-70
2021/04/15 07:01:50;;;;;;;4.25;2.05;;;;;;;9.05;55.50;103047.59;4853568;29;123812;-70
2021/04/15 07:04:22;;;;;;;6.50;2.20;;;;;;;9.21;54.45;103042.25;4865275;28;114215;-72
2021/04/15 07:06:55;;;;;;;3.97;2.10;;;;;;;9.32;54.28;103045.72;4853833;28;113982;-70
2021/04/15 07:09:54;;;;;;;5.28;2.20;;;;;;;9.45;54.50;103042.13;4847241;28;124054;-71
2021/04/15 07:12:58;;;;;;;7.30;2.60;;;;;;;9.60;53.97;103045.59;4847582;28;123866;-72
2021/04/15 07:16:02;;;;;;;4.47;2.38;;;;;;;9.73;53.51;103042.00;4866370;28;116149;-71
2021/04/15 07:19:26;;;;;;;4.40;2.00;;;;;;;9.88;53.59;103052.47;4846141;28;113733;-71
2021/04/15 07:22:05;;;;;;;4.68;2.55;;;;;;;10.06;53.53;103045.31;4814800;29;123653;-70
2021/04/15 07:24:59;;;;;;;5.65;2.42;;;;;;;10.16;53.05;103047.00;4815496;29;123655;-70
2021/04/15 07:27:57;;;;;;;5.28;2.08;;;;;;;10.21;52.04;103045.19;4847218;28;113134;-69
2021/04/15 07:30:47;;;;;;;5.18;2.03;;;;;;;10.23;51.80;103042.53;4851671;28;114718;-70
2021/04/15 07:33:36;;;;;;;3.97;2.00;;;;;;;10.23;51.77;103054.00;4851204;28;123184;-69
2021/04/15 07:36:35;;;;;;;5.20;2.22;;;;;;;10.28;51.79;103051.31;4846369;28;124025;-70
2021/04/15 07:39:20;;;;;;;4.70;2.13;;;;;;;10.37;51.81;103056.56;4859385;28;113136;-69
2021/04/15 07:42:08;;;;;;;9.00;2.88;;;;;;;10.47;51.56;103062.66;4839436;28;113866;-69
2021/04/15 07:44:42;;;;;;;5.70;2.70;;;;;;;10.56;51.60;103057.28;4840573;28;124097;-70
2021/04/15 07:47:26;;;;;;;6.20;3.17;;;;;;;10.64;51.81;103055.47;4850240;28;124033;-69
2021/04/15 07:50:24;;;;;;;7.03;2.90;;;;;;;10.75;51.62;103054.47;4844535;28;115038;-69
2021/04/15 07:53:13;;;;;;;5.45;2.47;;;;;;;10.85;51.47;103066.69;4847073;28;115209;-69
2021/04/15 07:55:54;;;;;;;6.60;2.75;;;;;;;10.95;51.47;103065.72;4846992;28;124496;-69
2021/04/15 07:58:53;;;;;;;6.30;2.70;;;;;;;11.08;51.19;103061.19;4864443;28;122915;-70
2021/04/15 08:01:42;;;;;;;4.57;2.95;;;;;;;11.18;51.24;103061.94;4851042;28;113852;-70
2021/04/15 08:04:57;;;;;;;6.05;2.78;;;;;;;11.23;50.67;103054.81;4846009;28;114747;-69
2021/04/15 08:07:39;;;;;;;5.25;3.03;;;;;;;11.22;49.76;103068.97;4819894;28;123714;-69
2021/04/15 08:10:24;;;;;;;6.43;3.15;;;;;;;11.13;49.90;103069.06;4844731;28;124148;-69
2021/04/15 08:13:28;;;;;;;6.47;3.00;;;;;;;11.07;49.79;103072.66;4852609;28;114325;-70
2021/04/15 08:16:26;;;;;;;6.15;2.70;;;;;;;11.03;49.61;103073.59;4832918;28;113800;-72
2021/04/15 08:19:17;;;;;;;4.00;2.22;;;;;;;10.91;48.81;103079.91;4848408;28;124478;-70
2021/04/15 08:21:59;;;;;;;6.15;2.63;;;;;;;10.78;49.24;103073.00;4871750;28;123724;-70
2021/04/15 08:25:04;;;;;;;6.40;2.60;;;;;;;10.69;49.48;103074.81;4851574;28;114833;-70
2021/04/15 08:27:51;;;;;;;4.45;2.78;;;;;;;10.61;49.59;103076.66;4837779;28;113878;-70
2021/04/15 08:30:23;;;;;;;5.70;2.45;;;;;;;10.58;49.44;103082.00;4901751;22;124031;-74
2021/04/15 08:33:12;;;;;;;4.82;2.40;;;;;;;10.56;49.73;103083.78;4916809;28;122920;-75
2021/04/15 08:36:18;;;;;;;5.13;2.45;;;;;;;10.55;49.59;103087.34;4949238;28;114600;-75
2021/04/15 08:39:06;;;;;;;6.03;2.53;;;;;;;10.50;49.48;103089.13;4913363;28;113220;-75
2021/04/15 08:41:57;;;;;;;6.05;2.53;;;;;;;10.44;49.72;103086.53;4911577;28;125484;-74
2021/04/15 08:44:39;;;;;;;7.15;2.80;;;;;;;10.39;49.78;103080.41;4944208;28;124342;-74
2021/04/15 08:47:54;;;;;;;4.20;2.83;;;;;;;10.37;49.65;103082.19;4932642;28;114851;-74
2021/04/15 08:50:33;;;;;;;6.85;2.70;;;;;;;10.41;50.28;103083.91;4919293;28;114598;-74
2021/04/15 08:53:37;;;;;;;4.65;2.47;;;;;;;10.49;49.95;103087.38;4953661;28;124080;-74
2021/04/15 08:56:13;;;;;;;4.68;2.55;;;;;;;10.56;50.26;103089.06;4937546;28;123462;-74
2021/04/15 08:59:08;;;;;;;5.85;2.83;;;;;;;10.64;50.21;103087.25;4919973;28;114088;-75
2021/04/15 09:02:10;;;;;;;7.43;2.78;;;;;;;10.75;49.62;103073.00;4943716;28;113704;-74
2021/04/15 09:04:52;;;;;;;5.40;2.65;;;;;;;10.79;49.37;103080.03;4918663;28;123019;-73
2021/04/15 09:07:27;;;;;;;4.03;2.42;;;;;;;10.85;49.30;103079.97;4924106;28;123606;-74
2021/04/15 09:10:13;;;;;;;5.53;2.77;;;;;;;10.87;49.04;103083.50;4943511;28;114475;-74
2021/04/15 09:13:11;;;;;;;6.20;2.63;;;;;;;10.94;49.07;103079.88;4939469;28;112333;-75
2021/04/15 09:15:55;;;;;;;4.80;2.80;;;;;;;11.04;48.59;103076.25;4934686;28;124267;-74
2021/04/15 09:18:47;;;;;;;6.28;2.50;;;;;;;11.19;49.19;103076.94;4934521;28;123731;-74
2021/04/15 09:21:35;;;;;;;3.35;2.08;;;;;;;11.36;48.81;103077.63;4917547;28;114464;-74
2021/04/15 09:24:19;;;;;;;5.43;1.98;;;;;;;11.50;48.06;103067.72;4932605;28;115032;-75
2021/04/15 09:27:20;;;;;;;3.43;2.10;;;;;;;11.61;48.64;103078.19;4938395;28;123960;-74
2021/04/15 09:29:59;;;;;;;4.63;2.30;;;;;;;11.81;47.98;103080.59;4931699;28;123711;-74
2021/04/15 09:32:43;;;;;;;5.88;2.17;;;;;;;11.99;47.97;103078.59;4930703;28;114183;-74
2021/04/15 09:35:53;;;;;;;4.22;2.10;;;;;;;12.16;47.95;103071.22;4922950;28;112794;-75
2021/04/15 09:38:35;;;;;;;6.10;2.22;;;;;;;12.35;46.89;103078.91;4933870;28;125041;-74
2021/04/15 09:41:29;;;;;;;4.05;2.10;;;;;;;12.52;47.29;103073.31;4932768;28;122746;-74
2021/04/15 09:44:08;;;;;;;3.42;2.08;;;;;;;12.76;47.15;103077.31;4931257;28;115301;-75
2021/04/15 09:46:51;;;;;;;3.85;2.40;;;;;;;12.97;46.46;103076.03;4923768;28;114099;-74
2021/04/15 09:49:38;;;;;;;3.55;2.28;;;;;;;13.11;45.54;103078.41;4922199;28;123330;-74
2021/04/15 09:52:32;;;;;;;4.45;2.40;;;;;;;13.23;46.14;103072.84;4927200;28;122991;-74
2021/04/15 09:55:27;;;;;;;5.28;2.40;;;;;;;13.40;44.70;103069.88;4916246;28;96869;-74
2021/04/15 09:58:19;;;;;;;4.90;2.28;;;;;;;13.49;45.06;103074.13;4918455;28;112117;-74
2021/04/15 10:00:52;;;;;;;4.50;2.40;;;;;;;13.58;44.18;103063.25;4945881;28;123695;-74
2021/04/15 10:03:26;;;;;;;4.60;2.50;;;;;;;13.59;44.08;103059.69;4939162;28;123107;-77
2021/04/15 10:06:19;;;;;;;6.13;2.30;;;;;;;13.58;43.76;103057.94;4917706;28;113350;-76
2021/04/15 10:08:54;;;;;;;4.72;2.03;;;;;;;13.64;43.47;103063.16;4937831;28;113908;-76
2021/04/15 10:11:41;;;;;;;4.93;2.08;;;;;;;13.74;43.55;103054.03;4935274;28;124762;-77
2021/04/15 10:14:59;;;;;;;4.68;1.90;;;;;;;13.89;43.15;103063.44;4943473;28;124591;-76
2021/04/15 10:17:38;;;;;;;3.88;1.80;;;;;;;14.01;42.33;103054.28;4899627;28;114078;-76
2021/04/15 10:20:26;;;;;;;3.75;1.50;;;;;;;14.08;41.67;103061.22;4926771;28;113979;-76
2021/04/15 10:23:15;;;;;;;4.32;1.50;;;;;;;14.09;41.19;103060.31;4935920;28;123710;-76
2021/04/15 10:25:52;;;;;;;3.33;1.50;;;;;;;14.06;40.73;103059.53;4919311;28;123485;-76
2021/04/15 10:28:50;;;;;;;2.15;1.48;;;;;;;13.99;40.61;103058.78;4917490;28;113520;-76
2021/04/15 10:31:40;;;;;;;3.95;1.50;;;;;;;13.88;40.39;103060.81;4930958;28;113671;-76
2021/04/15 10:34:41;;;;;;;3.72;1.70;;;;;;;13.74;40.15;103059.34;4937240;28;124260;-76
2021/04/15 10:37:32;;;;;;;3.92;2.08;;;;;;;13.59;40.96;103054.38;4941860;28;124686;-77
2021/04/15 10:40:28;;;;;;;3.85;1.92;;;;;;;13.46;40.70;103052.91;4941915;28;115269;-76
2021/04/15 10:43:14;;;;;;;3.80;1.90;;;;;;;13.32;41.10;103062.06;4934858;28;114584;-76
2021/04/15 10:46:18;;;;;;;2.88;1.73;;;;;;;13.22;40.90;103060.44;4920185;28;123753;-76
2021/04/15 10:48:56;;;;;;;2.65;1.60;;;;;;;13.14;41.13;103057.06;4943858;28;123906;-77
2021/04/15 10:51:59;;;;;;;3.47;1.60;;;;;;;13.10;40.89;103060.72;4930738;28;114440;-77
2021/04/15 10:54:34;;;;;;;3.00;1.70;;;;;;;13.11;40.95;103065.09;4906506;28;113612;-75
2021/04/15 10:57:13;;;;;;;4.68;1.85;;;;;;;13.15;41.34;103058.84;4935872;28;124224;-76
2021/04/15 10:59:43;;;;;;;4.40;1.85;;;;;;;13.18;40.75;103059.63;4947573;28;124321;-76
2021/04/15 11:02:16;;;;;;;4.95;1.80;;;;;;;13.18;40.21;103061.41;4942776;28;113122;-77
2021/04/15 11:04:44;;;;;;;2.63;1.40;;;;;;;13.17;40.42;103062.34;4928319;28;113680;-77
2021/04/15 11:07:15;;;;;;;3.72;2.00;;;;;;;13.20;40.38;103062.25;4946214;28;125414;-76
2021/04/15 11:09:48;;;;;;;3.75;1.63;;;;;;;13.23;40.37;103063.06;4932007;28;124611;-76
2021/04/15 11:12:15;;;;;;;2.58;1.80;;;;;;;13.25;40.50;103055.06;4932958;28;113126;-77
2021/04/15 11:14:44;;;;;;;5.80;1.50;;;;;;;13.32;40.53;103056.72;4934107;28;112182;-77
2021/04/15 11:17:32;;;;;;;2.38;1.40;;;;;;;13.41;40.14;103051.22;4938896;28;123061;-77
2021/04/15 11:20:29;;;;;;;4.25;1.55;;;;;;;13.47;40.28;103046.66;4940681;28;123981;-76
2021/04/15 11:22:58;;;;;;;2.53;1.85;;;;;;;13.52;40.54;103039.44;4923133;28;114260;-77
2021/04/15 11:25:34;;;;;;;2.58;1.63;;;;;;;13.53;39.40;103039.41;4917346;28;113908;-77
2021/04/15 11:28:18;;;;;;;3.47;1.60;;;;;;;13.53;39.90;103038.53;4919480;28;124936;-77
2021/04/15 11:30:54;;;;;;;2.78;1.58;;;;;;;13.60;39.78;103034.84;4944995;28;123668;-78
2021/04/15 11:33:44;;;;;;;3.45;1.38;;;;;;;13.72;39.89;103029.22;4952480;28;115090;-79
2021/04/15 11:36:14;;;;;;;3.80;1.63;;;;;;;13.87;39.53;103021.78;4944514;28;114004;-78
2021/04/15 11:38:43;;;;;;;3.10;1.52;;;;;;;14.04;39.51;103024.03;4943567;28;123818;-79
2021/04/15 11:41:20;;;;;;;2.72;1.73;;;;;;;14.21;40.32;103025.38;4942267;28;123951;-79
2021/04/15 11:43:50;;;;;;;2.85;1.52;;;;;;;14.37;38.60;103025.88;4913796;28;112832;-81
2021/04/15 11:46:41;;;;;;;2.83;1.33;;;;;;;14.41;38.28;103018.66;4916198;28;113083;-79
2021/04/15 11:49:36;;;;;;;3.25;1.60;;;;;;;14.45;37.78;103020.31;4893060;28;124053;-80
2021/04/15 11:52:12;;;;;;;3.47;1.50;;;;;;;14.45;37.68;103020.31;4923650;28;123867;-79
2021/04/15 11:54:50;;;;;;;3.25;1.75;;;;;;;14.44;37.73;103013.22;4934660;28;113648;-78
2021/04/15 11:57:20;;;;;;;6.47;1.83;;;;;;;14.48;37.15;103009.56;4924144;28;113189;-79
2021/04/15 11:59:56;;;;;;;2.20;1.33;;;;;;;14.55;37.53;103016.47;4920550;28;123457;-81
2021/04/15 12:02:34;;;;;;;5.45;2.10;;;;;;;14.62;37.59;103011.00;4935379;28;124126;-79
2021/04/15 12:05:29;;;;;;;3.55;1.55;;;;;;;14.63;36.70;103012.78;4936870;28;114009;-78
2021/04/15 12:08:12;;;;;;;2.63;1.65;;;;;;;14.58;36.77;103004.91;4918735;28;113414;-79
2021/04/15 12:10:46;;;;;;;2.42;1.55;;;;;;;14.52;36.46;103011.25;4927385;28;123867;-79
2021/04/15 12:13:21;;;;;;;2.67;1.80;;;;;;;14.44;36.16;103013.22;4935111;28;123977;-79
2021/04/15 12:15:56;;;;;;;3.95;1.73;;;;;;;14.38;36.34;103018.72;4919405;28;114477;-81
2021/04/15 12:18:34;;;;;;;3.13;1.90;;;;;;;14.32;36.44;103008.22;4917893;28;114008;-79
2021/04/15 12:21:10;;;;;;;3.47;1.77;;;;;;;14.31;37.22;103011.81;4926172;28;122927;-79
2021/04/15 12:23:54;;;;;;;;;;;;;;;14.32;37.63;103009.09;4913960;28;122924;-78